Wilton, Wisconsin
Current Conditions -  °F | °C
As of 8:35 PM on Tuesday 25 Nov 2014 (Local Time) from KCMY Reporting Station
Overcast Overcast  
Wind Chill: 19°   Ceiling: 5500
Heat Index: 19°   Visibility: 10mi
Dew Point: 15°   Wind: 0mph
Humidity: 83%   Direction: NA
Pressure: 30.1"   Gusts: NA
Location:  43.81°N, 90.53°W
Report Text: KCMY 260235Z AUTO 00000KT 10SM OVC055 M07/M09 A3010 RMK AO2 T10701095
Loading
Personal Weather Stations






























Interactive Weather Map New forecast layout! Learn more

10-Day Weather Forecast

Advertisements
Track Severe Weather on mobile